sensor_id;sensor_type;location;lat;lon;timestamp;P1;durP1;ratioP1;P2;durP2;ratioP2
39674;SDS011;27790;50.840;4.386;2022-07-12T00:01:06;6.50;;;4.70;;
39674;SDS011;27790;50.840;4.386;2022-07-12T00:03:32;3.03;;;2.83;;
39674;SDS011;27790;50.840;4.386;2022-07-12T00:05:58;7.57;;;3.10;;
39674;SDS011;27790;50.840;4.386;2022-07-12T00:08:24;4.72;;;2.60;;
39674;SDS011;27790;50.840;4.386;2022-07-12T00:10:49;7.43;;;3.08;;
39674;SDS011;27790;50.840;4.386;2022-07-12T00:13:15;4.10;;;2.85;;
39674;SDS011;27790;50.840;4.386;2022-07-12T00:15:41;2.65;;;2.45;;
39674;SDS011;27790;50.840;4.386;2022-07-12T00:18:07;6.95;;;3.30;;
39674;SDS011;27790;50.840;4.386;2022-07-12T00:20:33;3.30;;;2.97;;
39674;SDS011;27790;50.840;4.386;2022-07-12T00:22:59;4.78;;;3.05;;
39674;SDS011;27790;50.840;4.386;2022-07-12T00:25:25;3.08;;;2.88;;
39674;SDS011;27790;50.840;4.386;2022-07-12T00:27:51;4.18;;;2.92;;
39674;SDS011;27790;50.840;4.386;2022-07-12T00:30:17;3.10;;;2.80;;
39674;SDS011;27790;50.840;4.386;2022-07-12T00:32:43;3.08;;;2.78;;
39674;SDS011;27790;50.840;4.386;2022-07-12T00:35:09;5.72;;;3.28;;
39674;SDS011;27790;50.840;4.386;2022-07-12T00:37:34;4.43;;;3.15;;
39674;SDS011;27790;50.840;4.386;2022-07-12T00:40:00;4.95;;;3.08;;
39674;SDS011;27790;50.840;4.386;2022-07-12T00:42:26;3.15;;;2.85;;
39674;SDS011;27790;50.840;4.386;2022-07-12T00:44:52;2.75;;;2.55;;
39674;SDS011;27790;50.840;4.386;2022-07-12T00:47:27;2.72;;;2.53;;
39674;SDS011;27790;50.840;4.386;2022-07-12T00:50:01;2.95;;;2.65;;
39674;SDS011;27790;50.840;4.386;2022-07-12T00:52:28;5.05;;;2.85;;
39674;SDS011;27790;50.840;4.386;2022-07-12T00:54:54;3.35;;;2.80;;
39674;SDS011;27790;50.840;4.386;2022-07-12T00:57:19;3.63;;;3.03;;
39674;SDS011;27790;50.840;4.386;2022-07-12T00:59:45;3.85;;;3.42;;
39674;SDS011;27790;50.840;4.386;2022-07-12T01:02:11;5.35;;;3.30;;
39674;SDS011;27790;50.840;4.386;2022-07-12T01:04:36;5.20;;;3.10;;
39674;SDS011;27790;50.840;4.386;2022-07-12T01:07:03;3.35;;;2.60;;
39674;SDS011;27790;50.840;4.386;2022-07-12T01:09:29;3.90;;;3.55;;
39674;SDS011;27790;50.840;4.386;2022-07-12T01:11:54;3.20;;;2.90;;
39674;SDS011;27790;50.840;4.386;2022-07-12T01:14:20;3.22;;;3.00;;
39674;SDS011;27790;50.840;4.386;2022-07-12T01:16:46;3.60;;;3.30;;
39674;SDS011;27790;50.840;4.386;2022-07-12T01:19:12;4.00;;;3.70;;
39674;SDS011;27790;50.840;4.386;2022-07-12T01:21:45;3.70;;;3.40;;
39674;SDS011;27790;50.840;4.386;2022-07-12T01:24:13;3.92;;;3.53;;
39674;SDS011;27790;50.840;4.386;2022-07-12T01:26:39;7.07;;;4.18;;
39674;SDS011;27790;50.840;4.386;2022-07-12T01:29:06;4.00;;;3.63;;
39674;SDS011;27790;50.840;4.386;2022-07-12T01:31:36;4.80;;;4.28;;
39674;SDS011;27790;50.840;4.386;2022-07-12T01:34:03;5.55;;;4.38;;
39674;SDS011;27790;50.840;4.386;2022-07-12T01:36:29;4.88;;;4.28;;
39674;SDS011;27790;50.840;4.386;2022-07-12T01:38:55;6.43;;;4.22;;
39674;SDS011;27790;50.840;4.386;2022-07-12T01:41:21;7.05;;;4.97;;
39674;SDS011;27790;50.840;4.386;2022-07-12T01:43:48;10.15;;;4.43;;
39674;SDS011;27790;50.840;4.386;2022-07-12T01:46:15;4.70;;;3.97;;
39674;SDS011;27790;50.840;4.386;2022-07-12T01:48:41;6.05;;;4.53;;
39674;SDS011;27790;50.840;4.386;2022-07-12T01:51:06;6.63;;;4.82;;
39674;SDS011;27790;50.840;4.386;2022-07-12T01:53:33;7.68;;;4.47;;
39674;SDS011;27790;50.840;4.386;2022-07-12T01:56:00;7.20;;;4.72;;
39674;SDS011;27790;50.840;4.386;2022-07-12T01:58:26;5.18;;;4.68;;
39674;SDS011;27790;50.840;4.386;2022-07-12T02:00:51;6.75;;;4.20;;
39674;SDS011;27790;50.840;4.386;2022-07-12T02:03:18;4.72;;;4.00;;
39674;SDS011;27790;50.840;4.386;2022-07-12T02:05:44;5.38;;;4.00;;
39674;SDS011;27790;50.840;4.386;2022-07-12T02:08:11;5.88;;;4.25;;
39674;SDS011;27790;50.840;4.386;2022-07-12T02:10:37;4.88;;;4.47;;
39674;SDS011;27790;50.840;4.386;2022-07-12T02:13:03;6.70;;;4.00;;
39674;SDS011;27790;50.840;4.386;2022-07-12T02:15:29;7.80;;;4.13;;
39674;SDS011;27790;50.840;4.386;2022-07-12T02:17:56;4.85;;;4.38;;
39674;SDS011;27790;50.840;4.386;2022-07-12T02:20:22;4.18;;;3.80;;
39674;SDS011;27790;50.840;4.386;2022-07-12T02:22:47;4.90;;;4.25;;
39674;SDS011;27790;50.840;4.386;2022-07-12T02:25:13;4.45;;;4.05;;
39674;SDS011;27790;50.840;4.386;2022-07-12T02:27:39;6.43;;;4.22;;
39674;SDS011;27790;50.840;4.386;2022-07-12T02:30:05;4.53;;;4.10;;
39674;SDS011;27790;50.840;4.386;2022-07-12T02:32:32;5.22;;;4.45;;
39674;SDS011;27790;50.840;4.386;2022-07-12T02:34:58;5.60;;;4.45;;
39674;SDS011;27790;50.840;4.386;2022-07-12T02:37:23;6.05;;;4.32;;
39674;SDS011;27790;50.840;4.386;2022-07-12T02:39:49;5.38;;;4.10;;
39674;SDS011;27790;50.840;4.386;2022-07-12T02:42:15;4.40;;;4.00;;
39674;SDS011;27790;50.840;4.386;2022-07-12T02:44:40;4.35;;;3.95;;
39674;SDS011;27790;50.840;4.386;2022-07-12T02:47:06;4.10;;;3.80;;
39674;SDS011;27790;50.840;4.386;2022-07-12T02:49:32;4.43;;;3.90;;
39674;SDS011;27790;50.840;4.386;2022-07-12T02:51:57;5.35;;;4.22;;
39674;SDS011;27790;50.840;4.386;2022-07-12T02:54:23;7.05;;;3.53;;
39674;SDS011;27790;50.840;4.386;2022-07-12T02:56:49;4.45;;;4.00;;
39674;SDS011;27790;50.840;4.386;2022-07-12T02:59:14;5.63;;;4.22;;
39674;SDS011;27790;50.840;4.386;2022-07-12T03:01:40;6.78;;;4.60;;
39674;SDS011;27790;50.840;4.386;2022-07-12T03:04:06;6.30;;;4.40;;
39674;SDS011;27790;50.840;4.386;2022-07-12T03:06:32;4.60;;;4.22;;
39674;SDS011;27790;50.840;4.386;2022-07-12T03:08:57;5.32;;;4.50;;
39674;SDS011;27790;50.840;4.386;2022-07-12T03:11:23;4.75;;;4.25;;
39674;SDS011;27790;50.840;4.386;2022-07-12T03:13:48;5.22;;;4.72;;
39674;SDS011;27790;50.840;4.386;2022-07-12T03:16:14;4.25;;;3.85;;
39674;SDS011;27790;50.840;4.386;2022-07-12T03:18:40;4.00;;;3.70;;
39674;SDS011;27790;50.840;4.386;2022-07-12T03:21:06;5.32;;;4.30;;
39674;SDS011;27790;50.840;4.386;2022-07-12T03:23:32;4.90;;;4.22;;
39674;SDS011;27790;50.840;4.386;2022-07-12T03:25:58;9.50;;;4.82;;
39674;SDS011;27790;50.840;4.386;2022-07-12T03:28:23;5.18;;;4.68;;
39674;SDS011;27790;50.840;4.386;2022-07-12T03:30:50;7.13;;;4.38;;
39674;SDS011;27790;50.840;4.386;2022-07-12T03:33:16;8.18;;;5.28;;
39674;SDS011;27790;50.840;4.386;2022-07-12T03:35:42;5.60;;;3.60;;
39674;SDS011;27790;50.840;4.386;2022-07-12T03:38:07;4.97;;;3.88;;
39674;SDS011;27790;50.840;4.386;2022-07-12T03:40:33;5.22;;;4.53;;
39674;SDS011;27790;50.840;4.386;2022-07-12T03:42:59;6.15;;;4.65;;
39674;SDS011;27790;50.840;4.386;2022-07-12T03:45:25;8.27;;;5.20;;
39674;SDS011;27790;50.840;4.386;2022-07-12T03:47:51;6.57;;;4.50;;
39674;SDS011;27790;50.840;4.386;2022-07-12T03:50:16;4.80;;;4.40;;
39674;SDS011;27790;50.840;4.386;2022-07-12T03:52:42;8.80;;;4.85;;
39674;SDS011;27790;50.840;4.386;2022-07-12T03:55:11;16.33;;;4.88;;
39674;SDS011;27790;50.840;4.386;2022-07-12T03:57:38;14.00;;;4.45;;
39674;SDS011;27790;50.840;4.386;2022-07-12T04:00:05;8.98;;;4.30;;
39674;SDS011;27790;50.840;4.386;2022-07-12T04:02:34;4.82;;;4.32;;
39674;SDS011;27790;50.840;4.386;2022-07-12T04:04:59;5.95;;;4.28;;
39674;SDS011;27790;50.840;4.386;2022-07-12T04:07:25;8.85;;;4.90;;
39674;SDS011;27790;50.840;4.386;2022-07-12T04:09:50;9.13;;;4.43;;
39674;SDS011;27790;50.840;4.386;2022-07-12T04:12:16;6.88;;;4.85;;
39674;SDS011;27790;50.840;4.386;2022-07-12T04:14:41;6.30;;;4.13;;
39674;SDS011;27790;50.840;4.386;2022-07-12T04:17:07;5.43;;;4.57;;
39674;SDS011;27790;50.840;4.386;2022-07-12T04:19:33;4.53;;;4.13;;
39674;SDS011;27790;50.840;4.386;2022-07-12T04:21:59;3.97;;;3.67;;
39674;SDS011;27790;50.840;4.386;2022-07-12T04:24:24;7.38;;;4.28;;
39674;SDS011;27790;50.840;4.386;2022-07-12T04:26:50;7.55;;;4.95;;
39674;SDS011;27790;50.840;4.386;2022-07-12T04:29:16;5.53;;;5.03;;
39674;SDS011;27790;50.840;4.386;2022-07-12T04:31:43;6.60;;;4.45;;
39674;SDS011;27790;50.840;4.386;2022-07-12T04:34:08;4.43;;;3.65;;
39674;SDS011;27790;50.840;4.386;2022-07-12T04:36:34;4.72;;;3.83;;
39674;SDS011;27790;50.840;4.386;2022-07-12T04:39:00;6.22;;;4.10;;
39674;SDS011;27790;50.840;4.386;2022-07-12T04:41:26;4.15;;;3.45;;
39674;SDS011;27790;50.840;4.386;2022-07-12T04:43:51;5.20;;;3.88;;
39674;SDS011;27790;50.840;4.386;2022-07-12T04:46:17;4.88;;;4.47;;
39674;SDS011;27790;50.840;4.386;2022-07-12T04:48:43;4.28;;;3.90;;
39674;SDS011;27790;50.840;4.386;2022-07-12T04:51:08;4.63;;;3.53;;
39674;SDS011;27790;50.840;4.386;2022-07-12T04:53:34;4.43;;;3.83;;
39674;SDS011;27790;50.840;4.386;2022-07-12T04:56:00;4.47;;;4.00;;
39674;SDS011;27790;50.840;4.386;2022-07-12T04:58:25;4.63;;;4.22;;
39674;SDS011;27790;50.840;4.386;2022-07-12T05:00:51;5.35;;;4.03;;
39674;SDS011;27790;50.840;4.386;2022-07-12T05:03:16;5.43;;;4.78;;
39674;SDS011;27790;50.840;4.386;2022-07-12T05:05:42;6.32;;;4.25;;
39674;SDS011;27790;50.840;4.386;2022-07-12T05:08:08;5.28;;;4.68;;
39674;SDS011;27790;50.840;4.386;2022-07-12T05:10:37;5.40;;;5.00;;
39674;SDS011;27790;50.840;4.386;2022-07-12T05:13:02;7.32;;;4.93;;
39674;SDS011;27790;50.840;4.386;2022-07-12T05:15:28;6.60;;;4.93;;
39674;SDS011;27790;50.840;4.386;2022-07-12T05:17:54;7.03;;;4.90;;
39674;SDS011;27790;50.840;4.386;2022-07-12T05:20:19;9.23;;;6.35;;
39674;SDS011;27790;50.840;4.386;2022-07-12T05:22:45;5.75;;;4.72;;
39674;SDS011;27790;50.840;4.386;2022-07-12T05:25:10;4.90;;;4.43;;
39674;SDS011;27790;50.840;4.386;2022-07-12T05:27:37;4.95;;;4.55;;
39674;SDS011;27790;50.840;4.386;2022-07-12T05:30:03;6.38;;;4.78;;
39674;SDS011;27790;50.840;4.386;2022-07-12T05:32:29;6.55;;;4.93;;
39674;SDS011;27790;50.840;4.386;2022-07-12T05:34:55;4.82;;;4.47;;
39674;SDS011;27790;50.840;4.386;2022-07-12T05:37:20;5.35;;;4.95;;
39674;SDS011;27790;50.840;4.386;2022-07-12T05:39:48;8.77;;;5.05;;
39674;SDS011;27790;50.840;4.386;2022-07-12T05:42:14;5.00;;;4.57;;
39674;SDS011;27790;50.840;4.386;2022-07-12T05:44:39;6.90;;;4.85;;
39674;SDS011;27790;50.840;4.386;2022-07-12T05:47:05;5.70;;;5.20;;
39674;SDS011;27790;50.840;4.386;2022-07-12T05:49:31;8.43;;;5.43;;
39674;SDS011;27790;50.840;4.386;2022-07-12T05:51:56;5.97;;;5.38;;
39674;SDS011;27790;50.840;4.386;2022-07-12T05:54:33;6.00;;;5.50;;
39674;SDS011;27790;50.840;4.386;2022-07-12T05:56:59;5.63;;;5.13;;
39674;SDS011;27790;50.840;4.386;2022-07-12T05:59:24;9.25;;;5.65;;
39674;SDS011;27790;50.840;4.386;2022-07-12T06:01:50;6.55;;;5.90;;
39674;SDS011;27790;50.840;4.386;2022-07-12T06:04:15;6.15;;;5.55;;
39674;SDS011;27790;50.840;4.386;2022-07-12T06:06:41;6.53;;;5.88;;
39674;SDS011;27790;50.840;4.386;2022-07-12T06:09:08;7.18;;;6.47;;
39674;SDS011;27790;50.840;4.386;2022-07-12T06:11:33;8.13;;;6.68;;
39674;SDS011;27790;50.840;4.386;2022-07-12T06:13:59;7.70;;;7.10;;
39674;SDS011;27790;50.840;4.386;2022-07-12T06:16:27;7.80;;;7.20;;
39674;SDS011;27790;50.840;4.386;2022-07-12T06:18:53;6.97;;;6.38;;
39674;SDS011;27790;50.840;4.386;2022-07-12T06:21:18;7.55;;;6.85;;
39674;SDS011;27790;50.840;4.386;2022-07-12T06:23:44;7.43;;;6.60;;
39674;SDS011;27790;50.840;4.386;2022-07-12T06:26:09;8.02;;;7.22;;
39674;SDS011;27790;50.840;4.386;2022-07-12T06:28:35;7.60;;;6.80;;
39674;SDS011;27790;50.840;4.386;2022-07-12T06:31:02;10.55;;;6.63;;
39674;SDS011;27790;50.840;4.386;2022-07-12T06:33:27;9.00;;;6.85;;
39674;SDS011;27790;50.840;4.386;2022-07-12T06:35:53;7.70;;;6.55;;
39674;SDS011;27790;50.840;4.386;2022-07-12T06:38:18;9.98;;;6.20;;
39674;SDS011;27790;50.840;4.386;2022-07-12T06:40:44;7.00;;;6.50;;
39674;SDS011;27790;50.840;4.386;2022-07-12T06:43:10;8.52;;;6.70;;
39674;SDS011;27790;50.840;4.386;2022-07-12T06:45:37;8.60;;;6.90;;
39674;SDS011;27790;50.840;4.386;2022-07-12T06:48:03;7.88;;;6.63;;
39674;SDS011;27790;50.840;4.386;2022-07-12T06:50:29;7.30;;;6.70;;
39674;SDS011;27790;50.840;4.386;2022-07-12T06:52:55;6.57;;;5.97;;
39674;SDS011;27790;50.840;4.386;2022-07-12T06:55:21;7.00;;;6.40;;
39674;SDS011;27790;50.840;4.386;2022-07-12T06:57:47;7.38;;;6.65;;
39674;SDS011;27790;50.840;4.386;2022-07-12T07:00:13;6.80;;;5.97;;
39674;SDS011;27790;50.840;4.386;2022-07-12T07:02:38;6.85;;;6.25;;
39674;SDS011;27790;50.840;4.386;2022-07-12T07:05:05;6.78;;;6.07;;
39674;SDS011;27790;50.840;4.386;2022-07-12T07:07:31;12.82;;;11.50;;
39674;SDS011;27790;50.840;4.386;2022-07-12T07:09:56;12.55;;;10.45;;
39674;SDS011;27790;50.840;4.386;2022-07-12T07:12:22;10.07;;;8.98;;
39674;SDS011;27790;50.840;4.386;2022-07-12T07:14:48;6.47;;;6.03;;
39674;SDS011;27790;50.840;4.386;2022-07-12T07:17:15;6.75;;;6.25;;
39674;SDS011;27790;50.840;4.386;2022-07-12T07:19:42;6.32;;;5.93;;
39674;SDS011;27790;50.840;4.386;2022-07-12T07:22:08;6.53;;;6.03;;
39674;SDS011;27790;50.840;4.386;2022-07-12T07:24:34;6.45;;;5.95;;
39674;SDS011;27790;50.840;4.386;2022-07-12T07:27:00;6.47;;;5.80;;
39674;SDS011;27790;50.840;4.386;2022-07-12T07:29:26;8.38;;;5.90;;
39674;SDS011;27790;50.840;4.386;2022-07-12T07:32:02;6.15;;;5.75;;
39674;SDS011;27790;50.840;4.386;2022-07-12T07:34:28;6.93;;;6.32;;
39674;SDS011;27790;50.840;4.386;2022-07-12T07:36:54;11.43;;;6.78;;
39674;SDS011;27790;50.840;4.386;2022-07-12T07:39:19;7.97;;;6.28;;
39674;SDS011;27790;50.840;4.386;2022-07-12T07:41:45;6.60;;;5.75;;
39674;SDS011;27790;50.840;4.386;2022-07-12T07:44:10;6.13;;;5.53;;
39674;SDS011;27790;50.840;4.386;2022-07-12T07:46:36;6.18;;;5.70;;
39674;SDS011;27790;50.840;4.386;2022-07-12T07:49:02;7.93;;;6.47;;
39674;SDS011;27790;50.840;4.386;2022-07-12T07:51:28;6.57;;;5.90;;
39674;SDS011;27790;50.840;4.386;2022-07-12T07:53:54;6.18;;;5.60;;
39674;SDS011;27790;50.840;4.386;2022-07-12T07:56:19;6.15;;;5.55;;
39674;SDS011;27790;50.840;4.386;2022-07-12T07:58:45;6.53;;;5.88;;
39674;SDS011;27790;50.840;4.386;2022-07-12T08:01:11;7.13;;;6.25;;
39674;SDS011;27790;50.840;4.386;2022-07-12T08:03:36;9.20;;;5.72;;
39674;SDS011;27790;50.840;4.386;2022-07-12T08:06:02;6.20;;;5.68;;
39674;SDS011;27790;50.840;4.386;2022-07-12T08:08:28;5.82;;;5.28;;
39674;SDS011;27790;50.840;4.386;2022-07-12T08:10:54;6.30;;;5.90;;
39674;SDS011;27790;50.840;4.386;2022-07-12T08:13:20;7.35;;;5.53;;
39674;SDS011;27790;50.840;4.386;2022-07-12T08:15:45;5.88;;;5.47;;
39674;SDS011;27790;50.840;4.386;2022-07-12T08:18:11;7.22;;;5.65;;
39674;SDS011;27790;50.840;4.386;2022-07-12T08:20:37;5.97;;;4.90;;
39674;SDS011;27790;50.840;4.386;2022-07-12T08:23:02;5.75;;;5.35;;
39674;SDS011;27790;50.840;4.386;2022-07-12T08:25:28;5.88;;;5.28;;
39674;SDS011;27790;50.840;4.386;2022-07-12T08:27:54;11.35;;;6.72;;
39674;SDS011;27790;50.840;4.386;2022-07-12T08:30:20;7.90;;;5.50;;
39674;SDS011;27790;50.840;4.386;2022-07-12T08:32:46;6.55;;;5.85;;
39674;SDS011;27790;50.840;4.386;2022-07-12T08:35:12;8.48;;;6.13;;
39674;SDS011;27790;50.840;4.386;2022-07-12T08:37:39;6.03;;;5.53;;
39674;SDS011;27790;50.840;4.386;2022-07-12T08:40:05;8.25;;;6.28;;
39674;SDS011;27790;50.840;4.386;2022-07-12T08:42:31;10.43;;;6.18;;
39674;SDS011;27790;50.840;4.386;2022-07-12T08:44:57;6.13;;;5.20;;
39674;SDS011;27790;50.840;4.386;2022-07-12T08:47:23;5.82;;;5.25;;
39674;SDS011;27790;50.840;4.386;2022-07-12T08:52:40;9.23;;;5.50;;
39674;SDS011;27790;50.840;4.386;2022-07-12T08:57:52;7.07;;;5.43;;
39674;SDS011;27790;50.840;4.386;2022-07-12T09:00:19;5.60;;;4.72;;
39674;SDS011;27790;50.840;4.386;2022-07-12T09:05:11;8.43;;;4.85;;
39674;SDS011;27790;50.840;4.386;2022-07-12T09:07:38;7.68;;;5.95;;
39674;SDS011;27790;50.840;4.386;2022-07-12T09:10:05;5.53;;;4.95;;
39674;SDS011;27790;50.840;4.386;2022-07-12T09:12:33;6.03;;;5.15;;
39674;SDS011;27790;50.840;4.386;2022-07-12T09:17:57;5.57;;;4.97;;
39674;SDS011;27790;50.840;4.386;2022-07-12T09:20:28;4.85;;;4.45;;
39674;SDS011;27790;50.840;4.386;2022-07-12T09:23:00;4.45;;;4.20;;
39674;SDS011;27790;50.840;4.386;2022-07-12T09:25:28;7.00;;;5.13;;
39674;SDS011;27790;50.840;4.386;2022-07-12T09:27:55;5.38;;;4.90;;
39674;SDS011;27790;50.840;4.386;2022-07-12T09:30:23;6.30;;;5.00;;
39674;SDS011;27790;50.840;4.386;2022-07-12T09:32:54;4.55;;;4.15;;
39674;SDS011;27790;50.840;4.386;2022-07-12T09:35:33;9.55;;;4.88;;
39674;SDS011;27790;50.840;4.386;2022-07-12T09:38:09;5.15;;;4.80;;
39674;SDS011;27790;50.840;4.386;2022-07-12T09:40:35;9.63;;;5.85;;
39674;SDS011;27790;50.840;4.386;2022-07-12T09:43:01;8.93;;;4.70;;
39674;SDS011;27790;50.840;4.386;2022-07-12T09:45:30;8.93;;;3.97;;
39674;SDS011;27790;50.840;4.386;2022-07-12T09:47:56;5.15;;;4.30;;
39674;SDS011;27790;50.840;4.386;2022-07-12T09:50:22;5.68;;;5.13;;
39674;SDS011;27790;50.840;4.386;2022-07-12T09:52:48;5.88;;;4.32;;
39674;SDS011;27790;50.840;4.386;2022-07-12T09:55:16;4.28;;;3.85;;
39674;SDS011;27790;50.840;4.386;2022-07-12T09:57:43;7.30;;;5.55;;
39674;SDS011;27790;50.840;4.386;2022-07-12T10:00:11;4.82;;;4.53;;
39674;SDS011;27790;50.840;4.386;2022-07-12T10:02:37;6.55;;;4.90;;
39674;SDS011;27790;50.840;4.386;2022-07-12T10:05:04;4.85;;;4.40;;
39674;SDS011;27790;50.840;4.386;2022-07-12T10:07:32;4.82;;;4.18;;
39674;SDS011;27790;50.840;4.386;2022-07-12T10:09:58;5.22;;;3.83;;
39674;SDS011;27790;50.840;4.386;2022-07-12T10:12:24;4.28;;;4.00;;
39674;SDS011;27790;50.840;4.386;2022-07-12T10:14:55;5.80;;;3.38;;
39674;SDS011;27790;50.840;4.386;2022-07-12T10:17:26;4.05;;;3.72;;
39674;SDS011;27790;50.840;4.386;2022-07-12T10:22:40;5.82;;;3.70;;
39674;SDS011;27790;50.840;4.386;2022-07-12T10:25:27;7.28;;;4.30;;
39674;SDS011;27790;50.840;4.386;2022-07-12T10:27:58;5.57;;;4.35;;
39674;SDS011;27790;50.840;4.386;2022-07-12T10:30:25;5.05;;;4.00;;
39674;SDS011;27790;50.840;4.386;2022-07-12T10:32:53;4.43;;;4.05;;
39674;SDS011;27790;50.840;4.386;2022-07-12T10:35:23;6.68;;;4.45;;
39674;SDS011;27790;50.840;4.386;2022-07-12T10:40:38;4.88;;;4.25;;
39674;SDS011;27790;50.840;4.386;2022-07-12T10:45:34;4.13;;;3.83;;
39674;SDS011;27790;50.840;4.386;2022-07-12T10:48:08;5.93;;;3.90;;
39674;SDS011;27790;50.840;4.386;2022-07-12T10:58:32;4.30;;;3.80;;
39674;SDS011;27790;50.840;4.386;2022-07-12T11:00:58;8.30;;;3.92;;
39674;SDS011;27790;50.840;4.386;2022-07-12T11:03:49;4.50;;;4.10;;
39674;SDS011;27790;50.840;4.386;2022-07-12T11:06:17;11.20;;;4.43;;
39674;SDS011;27790;50.840;4.386;2022-07-12T11:11:16;6.85;;;3.47;;
39674;SDS011;27790;50.840;4.386;2022-07-12T11:13:42;3.65;;;3.10;;
39674;SDS011;27790;50.840;4.386;2022-07-12T11:16:07;3.80;;;3.47;;
39674;SDS011;27790;50.840;4.386;2022-07-12T11:18:34;4.13;;;3.55;;
39674;SDS011;27790;50.840;4.386;2022-07-12T11:21:01;3.88;;;3.58;;
39674;SDS011;27790;50.840;4.386;2022-07-12T11:23:27;4.22;;;3.83;;
39674;SDS011;27790;50.840;4.386;2022-07-12T11:25:54;6.43;;;3.35;;
39674;SDS011;27790;50.840;4.386;2022-07-12T11:28:24;3.40;;;3.10;;
39674;SDS011;27790;50.840;4.386;2022-07-12T11:30:50;4.38;;;2.90;;
39674;SDS011;27790;50.840;4.386;2022-07-12T11:33:16;4.60;;;2.65;;
39674;SDS011;27790;50.840;4.386;2022-07-12T11:35:45;5.13;;;3.45;;
39674;SDS011;27790;50.840;4.386;2022-07-12T11:38:11;3.90;;;3.60;;
39674;SDS011;27790;50.840;4.386;2022-07-12T11:40:37;3.92;;;3.53;;
39674;SDS011;27790;50.840;4.386;2022-07-12T11:43:03;4.10;;;3.15;;
39674;SDS011;27790;50.840;4.386;2022-07-12T11:45:30;5.47;;;3.10;;
39674;SDS011;27790;50.840;4.386;2022-07-12T11:47:58;4.55;;;2.95;;
39674;SDS011;27790;50.840;4.386;2022-07-12T11:50:28;5.57;;;3.75;;
39674;SDS011;27790;50.840;4.386;2022-07-12T11:52:54;3.22;;;2.97;;
39674;SDS011;27790;50.840;4.386;2022-07-12T11:55:20;3.92;;;2.65;;
39674;SDS011;27790;50.840;4.386;2022-07-12T11:57:46;3.97;;;3.38;;
39674;SDS011;27790;50.840;4.386;2022-07-12T12:00:13;3.35;;;3.15;;
39674;SDS011;27790;50.840;4.386;2022-07-12T12:02:39;5.50;;;3.22;;
39674;SDS011;27790;50.840;4.386;2022-07-12T12:05:05;3.78;;;3.22;;
39674;SDS011;27790;50.840;4.386;2022-07-12T12:07:30;3.78;;;3.47;;
39674;SDS011;27790;50.840;4.386;2022-07-12T12:10:18;3.63;;;3.13;;
39674;SDS011;27790;50.840;4.386;2022-07-12T12:12:53;3.50;;;3.20;;
39674;SDS011;27790;50.840;4.386;2022-07-12T12:15:24;4.30;;;3.90;;
39674;SDS011;27790;50.840;4.386;2022-07-12T12:18:10;3.60;;;3.08;;
39674;SDS011;27790;50.840;4.386;2022-07-12T12:20:37;4.90;;;3.70;;
39674;SDS011;27790;50.840;4.386;2022-07-12T12:23:14;10.07;;;3.63;;
39674;SDS011;27790;50.840;4.386;2022-07-12T12:25:41;5.53;;;4.13;;
39674;SDS011;27790;50.840;4.386;2022-07-12T12:28:06;3.50;;;3.17;;
39674;SDS011;27790;50.840;4.386;2022-07-12T12:30:33;9.77;;;4.22;;
39674;SDS011;27790;50.840;4.386;2022-07-12T12:33:00;11.20;;;4.18;;
39674;SDS011;27790;50.840;4.386;2022-07-12T12:35:36;7.45;;;3.75;;
39674;SDS011;27790;50.840;4.386;2022-07-12T12:40:40;6.38;;;4.10;;
39674;SDS011;27790;50.840;4.386;2022-07-12T12:43:17;5.85;;;3.75;;
39674;SDS011;27790;50.840;4.386;2022-07-12T12:45:51;3.95;;;3.55;;
39674;SDS011;27790;50.840;4.386;2022-07-12T12:50:51;4.85;;;3.25;;
39674;SDS011;27790;50.840;4.386;2022-07-12T12:53:19;3.50;;;3.15;;
39674;SDS011;27790;50.840;4.386;2022-07-12T12:55:46;3.72;;;3.40;;
39674;SDS011;27790;50.840;4.386;2022-07-12T12:58:14;3.88;;;3.45;;
39674;SDS011;27790;50.840;4.386;2022-07-12T13:00:41;5.20;;;3.50;;
39674;SDS011;27790;50.840;4.386;2022-07-12T13:03:10;7.32;;;3.47;;
39674;SDS011;27790;50.840;4.386;2022-07-12T13:05:37;3.38;;;3.17;;
39674;SDS011;27790;50.840;4.386;2022-07-12T13:08:04;4.18;;;3.50;;
39674;SDS011;27790;50.840;4.386;2022-07-12T13:10:31;4.25;;;3.83;;
39674;SDS011;27790;50.840;4.386;2022-07-12T13:12:57;5.72;;;3.85;;
39674;SDS011;27790;50.840;4.386;2022-07-12T13:15:24;4.63;;;3.80;;
39674;SDS011;27790;50.840;4.386;2022-07-12T13:17:50;4.10;;;3.40;;
39674;SDS011;27790;50.840;4.386;2022-07-12T13:20:16;3.97;;;3.38;;
39674;SDS011;27790;50.840;4.386;2022-07-12T13:22:42;6.18;;;3.50;;
39674;SDS011;27790;50.840;4.386;2022-07-12T13:25:08;7.40;;;3.30;;
39674;SDS011;27790;50.840;4.386;2022-07-12T13:27:38;3.28;;;2.95;;
39674;SDS011;27790;50.840;4.386;2022-07-12T13:30:05;5.85;;;2.97;;
39674;SDS011;27790;50.840;4.386;2022-07-12T13:32:33;2.92;;;2.63;;
39674;SDS011;27790;50.840;4.386;2022-07-12T13:34:59;5.40;;;2.85;;
39674;SDS011;27790;50.840;4.386;2022-07-12T13:37:25;3.85;;;2.55;;
39674;SDS011;27790;50.840;4.386;2022-07-12T13:39:51;3.40;;;2.53;;
39674;SDS011;27790;50.840;4.386;2022-07-12T13:42:28;6.95;;;3.00;;
39674;SDS011;27790;50.840;4.386;2022-07-12T13:44:53;3.78;;;3.03;;
39674;SDS011;27790;50.840;4.386;2022-07-12T13:47:22;3.58;;;3.28;;
39674;SDS011;27790;50.840;4.386;2022-07-12T13:49:49;3.03;;;2.83;;
39674;SDS011;27790;50.840;4.386;2022-07-12T13:52:14;4.00;;;2.60;;
39674;SDS011;27790;50.840;4.386;2022-07-12T13:54:40;3.05;;;2.85;;
39674;SDS011;27790;50.840;4.386;2022-07-12T13:57:08;2.55;;;2.38;;
39674;SDS011;27790;50.840;4.386;2022-07-12T13:59:35;9.55;;;3.55;;
39674;SDS011;27790;50.840;4.386;2022-07-12T14:02:04;4.38;;;3.00;;
39674;SDS011;27790;50.840;4.386;2022-07-12T14:04:30;4.43;;;3.20;;
39674;SDS011;27790;50.840;4.386;2022-07-12T14:06:56;8.32;;;3.30;;
39674;SDS011;27790;50.840;4.386;2022-07-12T14:09:22;5.45;;;3.05;;
39674;SDS011;27790;50.840;4.386;2022-07-12T14:11:48;3.08;;;2.78;;
39674;SDS011;27790;50.840;4.386;2022-07-12T14:14:14;2.92;;;2.72;;
39674;SDS011;27790;50.840;4.386;2022-07-12T14:16:41;5.50;;;3.05;;
39674;SDS011;27790;50.840;4.386;2022-07-12T14:19:06;3.00;;;2.65;;
39674;SDS011;27790;50.840;4.386;2022-07-12T14:21:32;2.85;;;2.65;;
39674;SDS011;27790;50.840;4.386;2022-07-12T14:23:58;8.57;;;2.67;;
39674;SDS011;27790;50.840;4.386;2022-07-12T14:26:25;3.50;;;2.55;;
39674;SDS011;27790;50.840;4.386;2022-07-12T14:28:52;4.95;;;2.92;;
39674;SDS011;27790;50.840;4.386;2022-07-12T14:31:17;5.82;;;3.35;;
39674;SDS011;27790;50.840;4.386;2022-07-12T14:33:43;2.13;;;2.03;;
39674;SDS011;27790;50.840;4.386;2022-07-12T14:36:09;2.80;;;2.60;;
39674;SDS011;27790;50.840;4.386;2022-07-12T14:38:34;2.55;;;2.30;;
39674;SDS011;27790;50.840;4.386;2022-07-12T14:41:00;4.80;;;2.70;;
39674;SDS011;27790;50.840;4.386;2022-07-12T14:43:25;5.13;;;2.70;;
39674;SDS011;27790;50.840;4.386;2022-07-12T14:45:51;3.53;;;2.72;;
39674;SDS011;27790;50.840;4.386;2022-07-12T14:48:17;2.80;;;2.60;;
39674;SDS011;27790;50.840;4.386;2022-07-12T14:50:42;3.83;;;2.70;;
39674;SDS011;27790;50.840;4.386;2022-07-12T14:53:08;5.30;;;2.70;;
39674;SDS011;27790;50.840;4.386;2022-07-12T14:55:34;5.05;;;3.10;;
39674;SDS011;27790;50.840;4.386;2022-07-12T14:57:59;3.13;;;2.83;;
39674;SDS011;27790;50.840;4.386;2022-07-12T15:00:26;4.85;;;3.10;;
39674;SDS011;27790;50.840;4.386;2022-07-12T15:02:52;4.93;;;2.50;;
39674;SDS011;27790;50.840;4.386;2022-07-12T15:05:23;3.72;;;2.92;;
39674;SDS011;27790;50.840;4.386;2022-07-12T15:07:50;2.92;;;2.72;;
39674;SDS011;27790;50.840;4.386;2022-07-12T15:10:15;5.97;;;3.30;;
39674;SDS011;27790;50.840;4.386;2022-07-12T15:12:41;3.72;;;2.65;;
39674;SDS011;27790;50.840;4.386;2022-07-12T15:15:07;4.43;;;2.88;;
39674;SDS011;27790;50.840;4.386;2022-07-12T15:17:33;3.25;;;2.95;;
39674;SDS011;27790;50.840;4.386;2022-07-12T15:19:59;4.53;;;2.75;;